Terminal Aerodrome Forecast
Issued by NWS

Home | Current Version | Previous Version | Text Only | Print | Product List | Glossary On
Versions: 1 2 3 4 5 6 7 8 9 10 11 12 13 14 15 16 17 18
000
FTUS46 KMFR 010541
TAFRBG
TAF
KRBG 010541Z 0106/0206 34006KT P6SM SCT250
     FM011200 VRB02KT P6SM BKN015 BKN035 BKN250
     FM011700 32006KT P6SM SCT050 BKN250
     FM020300 VRB03KT P6SM -SHRA BKN025 OVC040=

USA.gov is the U.S. government's official web portal to all federal, state and local government web resources and services.